createdAt,value
2022-09-07T00:01:19.085Z,62.78
2022-09-07T00:03:47.539Z,63.08
2022-09-07T00:06:16.283Z,63.44
2022-09-07T00:08:44.594Z,63.53
2022-09-07T00:11:17.131Z,63.33
2022-09-07T00:13:47.687Z,63.55
2022-09-07T00:16:19.564Z,63.65
2022-09-07T00:18:48.458Z,63.58
2022-09-07T00:21:18.048Z,63.74
2022-09-07T00:23:48.335Z,63.67
2022-09-07T00:26:20.420Z,63.50
2022-09-07T00:28:49.470Z,63.83
2022-09-07T00:31:22.938Z,64.25
2022-09-07T00:33:52.602Z,64.48
2022-09-07T00:36:22.729Z,64.48
2022-09-07T00:38:51.009Z,64.30
2022-09-07T00:41:21.276Z,64.85
2022-09-07T00:43:55.890Z,65.00
2022-09-07T00:46:27.215Z,65.01
2022-09-07T00:49:12.790Z,65.38
2022-09-07T00:51:53.732Z,65.36
2022-09-07T00:54:28.230Z,64.81
2022-09-07T00:56:56.662Z,65.15
2022-09-07T00:59:29.437Z,65.41
2022-09-07T01:01:58.057Z,65.54
2022-09-07T01:04:31.210Z,65.20
2022-09-07T01:06:59.985Z,65.37
2022-09-07T01:09:31.103Z,65.90
2022-09-07T01:12:00.942Z,65.09
2022-09-07T01:14:33.881Z,64.85
2022-09-07T01:17:20.953Z,65.21
2022-09-07T01:19:49.564Z,65.24
2022-09-07T01:22:36.253Z,65.35
2022-09-07T01:25:14.382Z,65.59
2022-09-07T01:28:08.841Z,70.27
2022-09-07T01:30:39.268Z,71.31
2022-09-07T01:33:34.022Z,67.17
2022-09-07T01:36:34.300Z,65.15
2022-09-07T01:39:06.538Z,64.48
2022-09-07T01:41:58.233Z,63.35
2022-09-07T01:44:30.407Z,63.93
2022-09-07T01:47:33.102Z,62.82
2022-09-07T01:50:13.399Z,64.12
2022-09-07T01:52:51.205Z,63.70
2022-09-07T01:55:27.338Z,64.32
2022-09-07T01:58:04.251Z,64.66
2022-09-07T02:00:35.856Z,64.29
2022-09-07T02:03:19.951Z,64.28
2022-09-07T02:06:07.530Z,64.31
2022-09-07T02:08:57.557Z,64.36
2022-09-07T02:11:48.146Z,64.26
2022-09-07T02:14:23.709Z,64.54
2022-09-07T02:17:05.485Z,64.59
2022-09-07T02:19:42.938Z,64.73
2022-09-07T02:22:16.955Z,65.45
2022-09-07T02:24:51.217Z,69.70
2022-09-07T02:27:27.679Z,72.95
2022-09-07T02:29:55.928Z,69.78
2022-09-07T02:32:24.170Z,63.00
2022-09-07T02:34:52.225Z,61.37
2022-09-07T02:37:21.839Z,61.54
2022-09-07T02:39:50.059Z,56.97
2022-09-07T02:42:18.080Z,54.61
2022-09-07T02:44:48.319Z,55.20
2022-09-07T02:47:26.509Z,56.22
2022-09-07T02:50:22.101Z,57.30
2022-09-07T02:53:22.567Z,58.11
2022-09-07T02:56:02.620Z,58.97
2022-09-07T02:58:52.326Z,60.18
2022-09-07T03:01:38.541Z,60.95
2022-09-07T03:04:29.801Z,69.37
2022-09-07T03:07:25.306Z,70.57
2022-09-07T03:09:57.747Z,61.84
2022-09-07T03:12:37.826Z,55.01
2022-09-07T03:15:06.738Z,53.95
2022-09-07T03:17:34.777Z,55.30
2022-09-07T03:20:03.483Z,56.71
2022-09-07T03:22:33.521Z,57.85
2022-09-07T03:25:04.386Z,58.88
2022-09-07T03:27:33.183Z,59.61
2022-09-07T03:30:02.104Z,60.53
2022-09-07T03:32:32.372Z,61.37
2022-09-07T03:35:01.586Z,66.83
2022-09-07T03:37:29.992Z,69.31
2022-09-07T03:39:58.351Z,64.40
2022-09-07T03:42:26.318Z,59.96
2022-09-07T03:44:54.550Z,57.67
2022-09-07T03:47:22.940Z,56.57
2022-09-07T03:49:51.926Z,57.35
2022-09-07T03:52:19.816Z,58.36
2022-09-07T03:54:48.040Z,59.29
2022-09-07T03:57:16.114Z,60.07
2022-09-07T03:59:43.930Z,60.84
2022-09-07T04:02:12.269Z,65.27
2022-09-07T04:04:42.321Z,71.09
2022-09-07T04:07:10.352Z,65.31
2022-09-07T04:09:38.509Z,61.51
2022-09-07T04:12:06.381Z,57.63
2022-09-07T04:14:34.332Z,55.90
2022-09-07T04:17:02.651Z,56.37
2022-09-07T04:19:30.704Z,57.49
2022-09-07T04:21:58.748Z,58.43
2022-09-07T04:24:26.926Z,59.63
2022-09-07T04:26:54.903Z,60.89
2022-09-07T04:29:22.871Z,65.25
2022-09-07T04:31:51.015Z,70.46
2022-09-07T04:34:18.930Z,66.02
2022-09-07T04:36:47.112Z,60.94
2022-09-07T04:39:15.232Z,58.63
2022-09-07T04:41:43.104Z,57.33
2022-09-07T04:44:14.891Z,58.23
2022-09-07T04:46:45.273Z,58.99
2022-09-07T04:49:14.542Z,60.03
2022-09-07T04:51:44.471Z,63.87
2022-09-07T04:54:13.592Z,72.07
2022-09-07T04:56:42.076Z,64.54
2022-09-07T04:59:10.092Z,57.24
2022-09-07T05:01:38.401Z,54.35
2022-09-07T05:04:06.396Z,55.33
2022-09-07T05:06:34.551Z,56.64
2022-09-07T05:09:03.055Z,57.99
2022-09-07T05:11:30.977Z,59.15
2022-09-07T05:14:00.843Z,60.10
2022-09-07T05:16:30.636Z,60.98
2022-09-07T05:19:01.385Z,63.64
2022-09-07T05:21:32.116Z,66.68
2022-09-07T05:24:01.227Z,69.05
2022-09-07T05:26:31.869Z,61.53
2022-09-07T05:31:52.314Z,55.56
2022-09-07T05:34:35.798Z,56.79
2022-09-07T05:37:03.884Z,57.17
2022-09-07T05:39:32.046Z,58.62
2022-09-07T05:41:59.935Z,59.59
2022-09-07T05:44:43.827Z,61.21
2022-09-07T05:47:12.755Z,66.38
2022-09-07T05:49:40.900Z,67.60
2022-09-07T05:52:08.742Z,60.93
2022-09-07T05:54:36.717Z,55.99
2022-09-07T05:57:05.098Z,54.34
2022-09-07T05:59:33.935Z,55.74
2022-09-07T06:02:01.983Z,57.55
2022-09-07T06:04:30.058Z,58.48
2022-09-07T06:07:20.969Z,58.95
2022-09-07T06:12:34.707Z,60.15
2022-09-07T06:15:03.091Z,60.42
2022-09-07T06:17:31.375Z,59.99
2022-09-07T06:19:59.219Z,60.35
2022-09-07T06:22:31.004Z,59.35
2022-09-07T06:24:59.583Z,60.39
2022-09-07T06:27:28.345Z,60.56
2022-09-07T06:29:56.597Z,60.12
2022-09-07T06:35:13.722Z,59.95
2022-09-07T06:37:42.198Z,59.15
2022-09-07T06:40:11.785Z,59.59
2022-09-07T06:42:40.110Z,59.69
2022-09-07T06:45:11.627Z,59.40
2022-09-07T06:47:41.115Z,58.92
2022-09-07T06:50:09.588Z,59.45
2022-09-07T06:55:27.986Z,59.23
2022-09-07T06:57:56.025Z,58.74
2022-09-07T07:00:23.952Z,57.15
2022-09-07T07:02:52.425Z,58.27
2022-09-07T07:05:20.461Z,57.82
2022-09-07T07:07:57.900Z,56.72
2022-09-07T07:10:25.730Z,57.22
2022-09-07T07:12:57.939Z,56.47
2022-09-07T07:15:28.651Z,55.73
2022-09-07T07:18:05.997Z,55.36
2022-09-07T07:20:42.538Z,54.92
2022-09-07T07:23:11.974Z,54.26
2022-09-07T07:25:39.777Z,54.10
2022-09-07T07:31:00.674Z,52.64
2022-09-07T07:33:33.775Z,52.50
2022-09-07T07:36:11.832Z,51.72
2022-09-07T07:44:20.923Z,50.77
2022-09-07T07:46:50.596Z,50.39
2022-09-07T07:49:18.994Z,49.76
2022-09-07T07:54:38.406Z,48.94
2022-09-07T07:57:06.795Z,48.31
2022-09-07T07:59:35.547Z,47.63
2022-09-07T08:02:05.821Z,48.34
2022-09-07T08:04:34.863Z,47.11
2022-09-07T08:07:08.643Z,46.39
2022-09-07T08:09:42.268Z,46.72
2022-09-07T08:12:13.180Z,44.35
2022-09-07T08:14:41.803Z,43.06
2022-09-07T08:17:15.980Z,42.66
2022-09-07T08:19:45.010Z,42.02
2022-09-07T08:22:13.382Z,42.45
2022-09-07T08:24:41.223Z,43.19
2022-09-07T08:27:09.303Z,42.17
2022-09-07T08:29:37.140Z,41.92
2022-09-07T08:32:06.863Z,41.94
2022-09-07T08:34:36.602Z,41.98
2022-09-07T08:37:04.534Z,41.06
2022-09-07T08:39:32.633Z,40.38
2022-09-07T08:42:10.988Z,41.15
2022-09-07T08:44:43.699Z,41.18
2022-09-07T08:47:38.697Z,40.89
2022-09-07T08:50:23.161Z,40.73
2022-09-07T08:53:15.265Z,40.16
2022-09-07T08:56:04.718Z,40.32
2022-09-07T08:58:49.155Z,40.50
2022-09-07T09:01:31.761Z,40.25
2022-09-07T09:04:17.238Z,38.65
2022-09-07T09:07:11.562Z,37.66
2022-09-07T09:09:46.198Z,37.26
2022-09-07T09:12:22.364Z,37.68
2022-09-07T09:15:18.204Z,38.16
2022-09-07T09:17:55.874Z,38.38
2022-09-07T09:20:31.153Z,38.14
2022-09-07T09:23:06.887Z,38.07
2022-09-07T09:25:38.376Z,37.11
2022-09-07T09:28:06.260Z,36.78
2022-09-07T09:30:34.185Z,36.61
2022-09-07T09:33:21.325Z,36.68
2022-09-07T09:35:51.502Z,36.43
2022-09-07T09:38:40.818Z,36.79
2022-09-07T09:41:11.305Z,37.09
2022-09-07T09:43:51.598Z,36.82
2022-09-07T09:46:31.673Z,36.82
2022-09-07T09:49:00.717Z,37.08
2022-09-07T09:54:25.265Z,37.06
2022-09-07T09:56:53.580Z,36.22
2022-09-07T10:05:38.165Z,36.83
2022-09-07T10:08:19.384Z,36.17
2022-09-07T10:11:14.505Z,35.79
2022-09-07T10:13:47.034Z,36.13
2022-09-07T10:16:15.159Z,35.66
2022-09-07T10:18:57.957Z,35.21
2022-09-07T10:21:31.152Z,35.31
2022-09-07T10:24:05.048Z,35.02
2022-09-07T10:26:35.595Z,35.05
2022-09-07T10:29:42.397Z,35.33
2022-09-07T10:32:33.654Z,35.75
2022-09-07T10:35:36.875Z,36.35
2022-09-07T10:38:16.499Z,36.32
2022-09-07T10:40:59.307Z,35.95
2022-09-07T10:43:48.521Z,35.51
2022-09-07T10:49:27.524Z,35.77
2022-09-07T10:51:58.952Z,35.42
2022-09-07T10:54:53.905Z,35.27
2022-09-07T10:58:00.996Z,35.02
2022-09-07T11:00:41.035Z,34.56
2022-09-07T11:03:25.303Z,34.76
2022-09-07T11:06:17.926Z,34.96
2022-09-07T11:12:03.981Z,35.36
2022-09-07T11:14:44.723Z,35.74
2022-09-07T11:17:20.980Z,35.52
2022-09-07T11:19:59.921Z,35.54
2022-09-07T11:22:35.235Z,34.62
2022-09-07T11:25:36.908Z,34.46
2022-09-07T11:28:20.758Z,34.70
2022-09-07T11:30:59.658Z,32.96
2022-09-07T11:33:36.615Z,33.98
2022-09-07T11:36:13.932Z,34.90
2022-09-07T11:38:54.279Z,35.22
2022-09-07T11:41:38.635Z,35.08
2022-09-07T11:44:21.891Z,34.90
2022-09-07T11:46:53.807Z,34.38
2022-09-07T11:49:26.277Z,33.98
2022-09-07T11:52:06.288Z,33.96
2022-09-07T11:54:57.783Z,34.24
2022-09-07T11:57:31.819Z,34.17
2022-09-07T12:00:02.600Z,33.88
2022-09-07T12:03:16.586Z,33.75
2022-09-07T12:06:04.180Z,33.37
2022-09-07T12:09:12.538Z,33.17
2022-09-07T12:11:55.656Z,34.12
2022-09-07T12:15:09.747Z,33.86
2022-09-07T12:18:00.491Z,33.77
2022-09-07T12:20:49.027Z,33.64
2022-09-07T12:23:16.999Z,33.53
2022-09-07T12:25:46.859Z,33.38
2022-09-07T12:28:37.633Z,33.14
2022-09-07T12:31:11.412Z,33.53
2022-09-07T12:33:40.665Z,33.80
2022-09-07T12:36:34.365Z,33.68
2022-09-07T12:39:25.817Z,33.33
2022-09-07T12:42:32.467Z,33.09
2022-09-07T12:45:29.009Z,32.63
2022-09-07T12:47:59.752Z,33.28
2022-09-07T12:50:38.172Z,33.11
2022-09-07T12:53:13.486Z,32.73
2022-09-07T12:56:27.751Z,32.87
2022-09-07T12:59:19.741Z,33.37
2022-09-07T13:02:15.073Z,33.31
2022-09-07T13:04:59.060Z,32.79
2022-09-07T13:07:42.409Z,32.64
2022-09-07T13:10:31.961Z,32.69
2022-09-07T13:16:17.844Z,31.58
2022-09-07T13:18:48.095Z,31.21
2022-09-07T13:21:18.140Z,32.00
2022-09-07T13:27:27.424Z,32.11
2022-09-07T13:30:00.475Z,32.37
2022-09-07T13:35:22.985Z,31.47
2022-09-07T13:38:00.948Z,31.69
2022-09-07T13:40:34.679Z,31.97
2022-09-07T13:43:04.449Z,32.35
2022-09-07T13:45:45.826Z,32.15
2022-09-07T13:48:28.228Z,32.37
2022-09-07T13:51:13.473Z,31.86
2022-09-07T13:53:47.442Z,31.77
2022-09-07T13:56:46.596Z,31.75
2022-09-07T13:59:31.206Z,31.43
2022-09-07T14:02:00.204Z,31.93
2022-09-07T14:04:49.486Z,31.35
2022-09-07T14:07:22.130Z,31.61
2022-09-07T14:10:03.542Z,31.77
2022-09-07T14:12:42.733Z,31.66
2022-09-07T14:15:19.001Z,31.07
2022-09-07T14:17:48.624Z,31.61
2022-09-07T14:20:18.672Z,31.55
2022-09-07T14:22:50.641Z,31.46
2022-09-07T14:25:22.951Z,31.04
2022-09-07T14:27:51.360Z,31.05
2022-09-07T14:30:19.033Z,30.87
2022-09-07T14:32:49.084Z,30.70
2022-09-07T14:35:20.121Z,30.79
2022-09-07T14:37:49.866Z,30.55
2022-09-07T14:40:24.008Z,30.04
2022-09-07T14:42:56.025Z,30.68
2022-09-07T14:45:24.001Z,31.14
2022-09-07T14:47:56.856Z,30.13
2022-09-07T14:50:33.888Z,30.61
2022-09-07T14:56:10.070Z,30.06
2022-09-07T14:58:38.027Z,30.74
2022-09-07T15:01:48.896Z,30.18
2022-09-07T15:04:19.566Z,30.29
2022-09-07T15:07:03.521Z,30.55
2022-09-07T15:09:37.403Z,30.66
2022-09-07T15:12:29.725Z,30.98
2022-09-07T15:15:22.282Z,30.90
2022-09-07T15:17:52.389Z,30.64
2022-09-07T15:20:36.309Z,30.49
2022-09-07T15:23:32.053Z,30.20
2022-09-07T15:26:00.148Z,29.53
2022-09-07T15:34:15.790Z,29.57
2022-09-07T15:36:51.034Z,29.43
2022-09-07T15:39:25.290Z,30.09
2022-09-07T15:41:54.506Z,29.68
2022-09-07T15:44:26.037Z,30.05
2022-09-07T15:49:50.048Z,30.56
2022-09-07T15:52:19.136Z,30.52
2022-09-07T15:54:47.052Z,30.58
2022-09-07T16:00:04.727Z,30.39
2022-09-07T16:05:31.185Z,31.65
2022-09-07T16:11:05.443Z,32.15
2022-09-07T16:13:42.795Z,32.20
2022-09-07T16:16:15.494Z,33.10
2022-09-07T16:18:46.958Z,33.28
2022-09-07T16:21:15.998Z,34.40
2022-09-07T16:23:52.147Z,35.62
2022-09-07T16:26:25.428Z,34.81
2022-09-07T16:28:53.977Z,36.55
2022-09-07T16:31:26.358Z,37.45
2022-09-07T16:33:54.765Z,38.68
2022-09-07T16:36:23.768Z,39.65
2022-09-07T16:38:59.639Z,39.98
2022-09-07T16:41:34.764Z,40.05
2022-09-07T16:44:03.062Z,40.97
2022-09-07T16:46:31.177Z,41.48
2022-09-07T16:48:58.921Z,42.24
2022-09-07T16:51:28.582Z,42.69
2022-09-07T16:53:59.780Z,42.85
2022-09-07T16:56:30.787Z,43.45
2022-09-07T16:59:02.116Z,43.44
2022-09-07T17:01:32.621Z,44.44
2022-09-07T17:04:04.487Z,44.88
2022-09-07T17:06:36.394Z,45.62
2022-09-07T17:09:05.368Z,45.76
2022-09-07T17:11:36.727Z,46.37
2022-09-07T17:14:06.778Z,46.76
2022-09-07T17:16:38.888Z,47.26
2022-09-07T17:19:30.114Z,47.75
2022-09-07T17:22:02.215Z,47.99
2022-09-07T17:24:32.225Z,48.25
2022-09-07T17:27:01.223Z,48.63
2022-09-07T17:29:37.142Z,48.97
2022-09-07T17:34:55.899Z,49.35
2022-09-07T17:37:26.907Z,49.73
2022-09-07T17:40:08.341Z,50.09
2022-09-07T17:45:34.170Z,50.00
2022-09-07T17:48:16.321Z,50.69
2022-09-07T17:50:48.453Z,51.31
2022-09-07T17:53:17.567Z,51.68
2022-09-07T17:55:50.067Z,51.65
2022-09-07T17:58:29.268Z,52.09
2022-09-07T18:01:30.974Z,52.32
2022-09-07T18:03:59.575Z,52.63
2022-09-07T18:06:32.140Z,53.17
2022-09-07T18:09:04.052Z,53.47
2022-09-07T18:11:45.490Z,54.04
2022-09-07T18:14:19.162Z,53.99
2022-09-07T18:16:50.002Z,54.21
2022-09-07T18:19:19.514Z,54.55
2022-09-07T18:21:52.010Z,54.84
2022-09-07T18:24:23.775Z,54.59
2022-09-07T18:26:54.255Z,54.79
2022-09-07T18:29:34.246Z,55.10
2022-09-07T18:32:08.025Z,54.86
2022-09-07T18:34:40.701Z,54.66
2022-09-07T18:37:12.773Z,54.57
2022-09-07T18:39:41.752Z,54.75
2022-09-07T18:42:10.303Z,54.69
2022-09-07T18:47:29.565Z,55.01
2022-09-07T18:49:58.817Z,55.11
2022-09-07T18:55:16.413Z,55.29
2022-09-07T18:57:44.906Z,55.27
2022-09-07T19:00:14.371Z,55.30
2022-09-07T19:02:42.486Z,55.35
2022-09-07T19:07:59.759Z,55.53
2022-09-07T19:10:27.883Z,55.98
2022-09-07T19:12:56.534Z,56.01
2022-09-07T19:15:25.518Z,56.06
2022-09-07T19:17:53.570Z,56.01
2022-09-07T19:20:21.939Z,56.18
2022-09-07T19:22:49.890Z,56.54
2022-09-07T19:25:19.464Z,56.56
2022-09-07T19:27:47.456Z,56.69
2022-09-07T19:30:17.479Z,56.70
2022-09-07T19:32:45.412Z,56.66
2022-09-07T19:35:13.487Z,56.58
2022-09-07T19:37:44.670Z,56.36
2022-09-07T19:40:18.627Z,56.26
2022-09-07T19:42:47.944Z,55.78
2022-09-07T19:45:16.064Z,55.71
2022-09-07T19:47:44.531Z,55.57
2022-09-07T19:50:12.725Z,55.34
2022-09-07T19:52:40.874Z,54.99
2022-09-07T19:55:09.244Z,55.33
2022-09-07T19:57:37.368Z,55.15
2022-09-07T20:00:06.099Z,55.02
2022-09-07T20:02:40.546Z,54.90
2022-09-07T20:05:08.794Z,54.47
2022-09-07T20:07:36.588Z,54.43
2022-09-07T20:10:06.975Z,54.97
2022-09-07T20:12:34.922Z,54.70
2022-09-07T20:15:02.714Z,54.24
2022-09-07T20:17:35.057Z,54.22
2022-09-07T20:20:04.734Z,53.94
2022-09-07T20:22:32.967Z,53.91
2022-09-07T20:25:01.040Z,53.87
2022-09-07T20:27:29.113Z,54.03
2022-09-07T20:29:57.097Z,53.99
2022-09-07T20:32:24.905Z,53.79
2022-09-07T20:34:53.411Z,54.04
2022-09-07T20:37:25.510Z,53.87
2022-09-07T20:39:53.426Z,53.88
2022-09-07T20:42:22.085Z,53.82
2022-09-07T20:44:50.262Z,54.05
2022-09-07T20:47:18.156Z,53.78
2022-09-07T20:49:46.391Z,54.02
2022-09-07T20:52:14.960Z,54.05
2022-09-07T20:54:42.781Z,54.06
2022-09-07T20:57:11.020Z,54.01
2022-09-07T20:59:39.501Z,54.39
2022-09-07T21:02:09.892Z,54.37
2022-09-07T21:04:37.972Z,54.46
2022-09-07T21:07:06.109Z,54.79
2022-09-07T21:09:34.238Z,54.75
2022-09-07T21:12:02.721Z,54.82
2022-09-07T21:14:30.846Z,54.96
2022-09-07T21:16:58.760Z,55.32
2022-09-07T21:19:26.630Z,55.64
2022-09-07T21:21:54.600Z,55.71
2022-09-07T21:24:23.695Z,56.01
2022-09-07T21:26:52.148Z,56.27
2022-09-07T21:29:23.808Z,56.21
2022-09-07T21:31:55.296Z,56.51
2022-09-07T21:34:23.372Z,57.12
2022-09-07T21:36:52.134Z,57.41
2022-09-07T21:39:21.489Z,57.60
2022-09-07T21:41:49.531Z,57.52
2022-09-07T21:44:17.658Z,57.38
2022-09-07T21:46:46.000Z,57.50
2022-09-07T21:49:14.491Z,57.59
2022-09-07T21:51:42.417Z,57.73
2022-09-07T21:54:10.624Z,58.56
2022-09-07T21:56:41.071Z,58.57
2022-09-07T21:59:13.275Z,58.68
2022-09-07T22:01:42.211Z,58.93
2022-09-07T22:04:10.707Z,59.03
2022-09-07T22:06:45.126Z,59.30
2022-09-07T22:09:13.728Z,59.53
2022-09-07T22:11:45.853Z,59.19
2022-09-07T22:14:16.344Z,59.32
2022-09-07T22:16:45.253Z,59.41
2022-09-07T22:19:13.503Z,60.15
2022-09-07T22:21:41.934Z,60.36
2022-09-07T22:24:12.396Z,60.43
2022-09-07T22:26:40.270Z,60.30
2022-09-07T22:29:10.974Z,60.31
2022-09-07T22:31:40.159Z,60.50
2022-09-07T22:34:09.572Z,60.96
2022-09-07T22:36:43.619Z,61.12
2022-09-07T22:39:18.070Z,60.99
2022-09-07T22:41:47.907Z,61.27
2022-09-07T22:44:18.763Z,60.94
2022-09-07T22:46:48.316Z,61.17
2022-09-07T22:49:17.219Z,61.40
2022-09-07T22:51:45.488Z,61.92
2022-09-07T22:54:14.367Z,64.27
2022-09-07T22:56:42.479Z,67.36
2022-09-07T22:59:12.082Z,65.28
2022-09-07T23:01:40.072Z,62.65
2022-09-07T23:04:08.854Z,61.27
2022-09-07T23:06:43.118Z,58.39
2022-09-07T23:09:14.678Z,56.34
2022-09-07T23:11:43.514Z,56.37
2022-09-07T23:14:15.306Z,56.70
2022-09-07T23:16:45.018Z,57.01
2022-09-07T23:19:14.865Z,57.32
2022-09-07T23:21:43.732Z,58.06
2022-09-07T23:24:19.483Z,58.61
2022-09-07T23:26:47.787Z,59.17
2022-09-07T23:29:16.283Z,59.41
2022-09-07T23:31:45.704Z,59.57
2022-09-07T23:34:13.783Z,59.45
2022-09-07T23:36:42.707Z,59.64
2022-09-07T23:39:11.231Z,59.64
2022-09-07T23:41:39.377Z,59.73
2022-09-07T23:44:07.557Z,59.97
2022-09-07T23:46:35.474Z,60.01
2022-09-07T23:49:03.625Z,60.00
2022-09-07T23:51:31.774Z,60.10
2022-09-07T23:53:59.858Z,60.29
2022-09-07T23:56:28.170Z,60.45
2022-09-07T23:58:56.232Z,60.49
